Time;durP1;ratioP1;P1;durP2;ratioP2;P2;SDS_P1;SDS_P2;PMS_P1;PMS_P2;Temp;Humidity;BMP_temperature;BMP_pressure;BME280_temperature;BME280_humidity;BME280_pressure;Samples;Min_cycle;Max_cycle;Signal;HPM_P1;HPM_P2
2022/11/14 00:02:18;;;;;;;28.63;10.93;;;5.80;99.90;;;;;;5033293;28;20507;-81
2022/11/14 00:04:47;;;;;;;21.60;8.68;;;5.70;99.90;;;;;;5032539;28;20088;-79
2022/11/14 00:07:13;;;;;;;23.05;9.52;;;5.70;99.90;;;;;;5016759;28;20056;-79
2022/11/14 00:09:41;;;;;;;20.13;8.90;;;5.70;99.90;;;;;;5032976;28;20048;-79
2022/11/14 00:12:08;;;;;;;27.80;9.40;;;5.70;99.90;;;;;;5033098;28;20041;-80
2022/11/14 00:14:35;;;;;;;23.10;10.55;;;5.70;99.90;;;;;;5032970;28;20041;-79
2022/11/14 00:17:01;;;;;;;23.27;10.32;;;5.90;99.90;;;;;;5032749;28;20041;-79
2022/11/14 00:19:26;;;;;;;22.35;8.88;;;5.80;99.90;;;;;;5033467;28;20052;-81
2022/11/14 00:21:53;;;;;;;22.30;8.90;;;5.80;99.90;;;;;;5032204;28;20056;-81
2022/11/14 00:24:19;;;;;;;25.63;8.70;;;5.80;99.90;;;;;;5032944;28;20045;-81
2022/11/14 00:26:45;;;;;;;23.38;9.02;;;6.00;99.90;;;;;;5032480;28;20049;-81
2022/11/14 00:29:11;;;;;;;24.23;8.85;;;5.80;99.90;;;;;;5066336;28;20041;-80
2022/11/14 00:31:37;;;;;;;23.38;9.88;;;5.90;99.90;;;;;;5049285;28;20041;-80
2022/11/14 00:34:04;;;;;;;26.40;9.00;;;5.90;99.90;;;;;;5032239;28;20037;-76
2022/11/14 00:36:29;;;;;;;24.17;9.50;;;5.90;99.90;;;;;;5032896;28;20065;-76
2022/11/14 00:38:55;;;;;;;25.70;9.60;;;5.90;99.90;;;;;;5032525;28;20084;-76
2022/11/14 00:41:21;;;;;;;27.17;7.85;;;5.90;99.90;;;;;;5032486;28;20037;-76
2022/11/14 00:43:47;;;;;;;19.90;9.10;;;5.90;99.90;;;;;;5016389;28;20049;-79
2022/11/14 00:46:12;;;;;;;23.13;8.27;;;6.00;99.90;;;;;;5049122;28;20049;-79
2022/11/14 00:48:38;;;;;;;21.77;8.52;;;6.00;99.90;;;;;;5032423;28;20077;-79
2022/11/14 00:51:04;;;;;;;19.95;8.85;;;6.00;99.90;;;;;;5048889;28;20453;-76
2022/11/14 00:53:30;;;;;;;25.73;9.10;;;6.00;99.90;;;;;;5016262;28;20041;-79
2022/11/14 00:55:55;;;;;;;20.50;8.77;;;6.20;99.90;;;;;;5032821;28;20124;-79
2022/11/14 00:58:21;;;;;;;20.27;9.68;;;6.10;99.90;;;;;;5032033;28;20485;-80
2022/11/14 01:00:47;;;;;;;20.02;7.97;;;6.00;99.90;;;;;;5032232;28;20042;-79
2022/11/14 01:03:13;;;;;;;19.80;8.90;;;6.10;99.90;;;;;;5032543;28;20045;-79
2022/11/14 01:05:48;;;;;;;22.90;9.85;;;6.10;99.90;;;;;;5032414;28;20114;-80
2022/11/14 01:08:15;;;;;;;15.57;7.93;;;6.10;99.90;;;;;;5031980;28;20041;-80
2022/11/14 01:10:42;;;;;;;19.90;8.50;;;6.60;99.90;;;;;;5032444;28;20429;-79
2022/11/14 01:13:09;;;;;;;23.42;9.35;;;6.70;99.90;;;;;;5032057;28;20120;-79
2022/11/14 01:15:42;;;;;;;19.98;8.52;;;6.10;99.90;;;;;;5032310;28;20080;-79
2022/11/14 01:18:13;;;;;;;23.42;8.30;;;6.50;99.90;;;;;;5032050;28;20128;-79
2022/11/14 01:20:40;;;;;;;22.05;9.98;;;6.20;99.90;;;;;;5032772;28;20716;-79
2022/11/14 01:23:07;;;;;;;24.10;10.05;;;6.30;99.90;;;;;;5032055;28;20046;-79
2022/11/14 01:25:35;;;;;;;19.75;8.52;;;6.40;99.90;;;;;;5032261;28;20045;-79
2022/11/14 01:28:00;;;;;;;20.83;8.15;;;6.20;99.90;;;;;;5032148;28;20080;-76
2022/11/14 01:30:26;;;;;;;21.83;9.18;;;6.30;99.90;;;;;;5015491;28;20076;-76
2022/11/14 01:32:52;;;;;;;18.48;8.48;;;6.20;99.90;;;;;;5015378;28;20472;-76
2022/11/14 01:35:18;;;;;;;23.25;9.90;;;6.20;99.90;;;;;;5032251;28;20107;-76
2022/11/14 01:37:43;;;;;;;19.88;8.85;;;6.30;99.90;;;;;;5032141;28;20045;-77
2022/11/14 01:40:10;;;;;;;21.05;9.55;;;6.00;99.90;;;;;;5031574;28;20378;-76
2022/11/14 01:42:35;;;;;;;20.92;9.57;;;6.30;99.90;;;;;;5014673;28;20042;-79
2022/11/14 01:45:21;;;;;;;17.92;8.85;;;6.20;99.90;;;;;;5015208;28;20048;-79
2022/11/14 01:47:46;;;;;;;18.65;8.32;;;6.70;99.90;;;;;;5035416;28;20042;-79
2022/11/14 01:50:12;;;;;;;21.38;8.23;;;6.30;99.90;;;;;;5019325;28;20099;-79
2022/11/14 01:52:40;;;;;;;24.15;8.98;;;6.30;99.90;;;;;;5019073;28;20482;-80
2022/11/14 01:55:08;;;;;;;22.30;10.02;;;6.20;99.90;;;;;;5035504;28;20128;-80
2022/11/14 01:57:46;;;;;;;26.83;9.90;;;6.30;99.90;;;;;;5035386;28;20052;-80
2022/11/14 02:00:13;;;;;;;22.17;10.07;;;6.30;99.90;;;;;;5035946;28;20049;-79
2022/11/14 02:02:38;;;;;;;21.17;9.35;;;6.30;99.90;;;;;;5035423;28;20152;-79
2022/11/14 02:05:14;;;;;;;21.73;9.35;;;6.40;99.90;;;;;;5032936;28;20135;-80
2022/11/14 02:07:41;;;;;;;23.30;10.10;;;6.30;99.90;;;;;;5041409;28;20516;-80
2022/11/14 02:10:17;;;;;;;27.55;9.98;;;6.30;99.90;;;;;;5055006;28;20076;-80
2022/11/14 02:12:43;;;;;;;22.88;9.98;;;6.30;99.90;;;;;;5054231;28;20080;-80
2022/11/14 02:15:09;;;;;;;22.77;10.52;;;6.30;99.90;;;;;;5054198;28;20063;-79
2022/11/14 02:17:35;;;;;;;20.45;9.43;;;6.30;99.90;;;;;;5038437;28;20044;-77
2022/11/14 02:20:09;;;;;;;25.13;10.40;;;6.30;99.90;;;;;;5038489;28;20044;-76
2022/11/14 02:22:35;;;;;;;21.83;10.15;;;6.30;99.90;;;;;;5055888;28;20041;-77
2022/11/14 02:25:01;;;;;;;25.50;12.45;;;6.40;99.90;;;;;;5050600;28;20044;-76
2022/11/14 02:27:27;;;;;;;26.52;10.90;;;6.30;99.90;;;;;;5021460;28;20045;-77
2022/11/14 02:29:52;;;;;;;25.42;11.18;;;6.30;99.90;;;;;;5021850;28;20056;-76
2022/11/14 02:32:18;;;;;;;27.80;11.25;;;6.30;99.90;;;;;;5022541;28;20033;-76
2022/11/14 02:34:44;;;;;;;25.80;10.50;;;6.40;99.90;;;;;;5021607;28;20041;-76
2022/11/14 02:37:09;;;;;;;26.33;11.50;;;6.30;99.90;;;;;;5054807;28;20041;-76
2022/11/14 02:39:35;;;;;;;25.45;10.90;;;6.20;99.90;;;;;;5054768;28;20036;-76
2022/11/14 02:42:01;;;;;;;27.88;11.90;;;6.30;99.90;;;;;;5054912;28;20106;-76
2022/11/14 02:44:27;;;;;;;27.48;11.70;;;6.30;99.90;;;;;;5039748;28;20045;-76
2022/11/14 02:46:52;;;;;;;23.25;10.63;;;6.20;99.90;;;;;;5066619;28;20045;-77
2022/11/14 02:49:18;;;;;;;31.38;12.27;;;6.20;99.90;;;;;;5054780;28;20129;-79
2022/11/14 02:51:44;;;;;;;26.58;11.60;;;6.20;99.90;;;;;;5025021;28;20477;-80
2022/11/14 02:54:09;;;;;;;23.83;10.45;;;6.60;99.90;;;;;;5055382;28;20029;-79
2022/11/14 02:56:35;;;;;;;27.40;12.73;;;6.30;99.90;;;;;;5023911;28;20047;-79
2022/11/14 02:59:01;;;;;;;30.35;13.05;;;6.20;99.90;;;;;;5052106;28;20086;-80
2022/11/14 03:01:26;;;;;;;30.80;13.00;;;6.20;99.90;;;;;;5054185;28;20094;-79
2022/11/14 03:03:52;;;;;;;27.77;12.60;;;6.20;99.90;;;;;;5055277;28;20124;-79
2022/11/14 03:06:18;;;;;;;34.10;15.57;;;6.20;99.90;;;;;;5037665;28;20082;-80
2022/11/14 03:08:43;;;;;;;39.85;14.13;;;6.20;99.90;;;;;;5057901;28;20047;-80
2022/11/14 03:11:09;;;;;;;37.28;14.98;;;6.30;99.90;;;;;;5037222;28;20079;-79
2022/11/14 03:13:35;;;;;;;32.63;13.68;;;6.20;99.90;;;;;;5054162;28;20044;-80
2022/11/14 03:16:06;;;;;;;34.28;16.38;;;6.20;99.90;;;;;;5038996;28;20600;-80
2022/11/14 03:18:32;;;;;;;33.00;14.93;;;6.20;99.90;;;;;;5054092;28;20048;-79
2022/11/14 03:21:15;;;;;;;31.75;14.07;;;6.20;99.90;;;;;;5086234;28;20044;-79
2022/11/14 03:23:42;;;;;;;36.17;14.95;;;6.20;99.90;;;;;;5053902;28;20032;-79
2022/11/14 03:26:09;;;;;;;35.55;16.10;;;6.10;99.90;;;;;;5042345;28;20507;-79
2022/11/14 03:28:35;;;;;;;36.22;15.82;;;6.10;99.90;;;;;;5037684;28;20045;-79
2022/11/14 03:31:01;;;;;;;36.58;15.52;;;6.30;99.90;;;;;;5036895;28;20130;-79
2022/11/14 03:33:27;;;;;;;38.55;15.65;;;6.80;99.90;;;;;;5053211;28;20123;-79
2022/11/14 03:35:53;;;;;;;37.05;15.43;;;6.10;99.90;;;;;;5037433;28;20128;-79
2022/11/14 03:38:21;;;;;;;37.05;14.85;;;6.70;99.90;;;;;;5027773;28;20120;-79
2022/11/14 03:40:49;;;;;;;35.55;15.98;;;6.10;99.90;;;;;;5036977;28;20480;-79
2022/11/14 03:43:16;;;;;;;36.72;16.25;;;6.10;99.90;;;;;;5053025;28;20040;-79
2022/11/14 03:45:42;;;;;;;34.95;16.17;;;6.20;99.90;;;;;;5036480;28;20473;-79
2022/11/14 03:48:07;;;;;;;36.28;15.43;;;6.10;99.90;;;;;;5038446;28;20044;-79
2022/11/14 03:50:33;;;;;;;31.92;14.10;;;6.10;99.90;;;;;;5048761;28;20044;-79
2022/11/14 03:52:59;;;;;;;36.42;15.95;;;6.10;99.90;;;;;;5036510;28;20043;-79
2022/11/14 03:55:25;;;;;;;41.33;16.08;;;6.10;99.90;;;;;;5036173;28;20075;-79
2022/11/14 03:57:50;;;;;;;41.75;16.05;;;6.10;99.90;;;;;;5020603;28;20041;-79
2022/11/14 04:00:16;;;;;;;33.95;14.27;;;6.10;99.90;;;;;;5037108;28;20048;-79
2022/11/14 04:02:42;;;;;;;37.15;15.35;;;6.10;99.90;;;;;;5052244;28;20045;-79
2022/11/14 04:05:08;;;;;;;38.78;15.43;;;6.60;99.90;;;;;;5019668;28;20053;-79
2022/11/14 04:07:34;;;;;;;35.20;15.77;;;6.30;99.90;;;;;;5036825;28;20071;-79
2022/11/14 04:10:00;;;;;;;37.85;16.08;;;6.40;99.90;;;;;;5052644;28;20043;-79
2022/11/14 04:12:25;;;;;;;37.53;15.77;;;6.10;99.90;;;;;;5019680;28;20381;-79
2022/11/14 04:14:51;;;;;;;39.05;16.55;;;6.10;99.90;;;;;;5052606;28;20361;-80
2022/11/14 04:17:17;;;;;;;41.40;15.93;;;6.20;99.90;;;;;;5019031;28;20041;-79
2022/11/14 04:19:43;;;;;;;39.58;16.10;;;6.10;99.90;;;;;;5039662;28;20049;-80
2022/11/14 04:22:09;;;;;;;38.47;15.68;;;6.10;99.90;;;;;;5052336;28;20046;-79
2022/11/14 04:24:34;;;;;;;38.72;16.23;;;6.10;99.90;;;;;;5036053;28;20040;-79
2022/11/14 04:27:00;;;;;;;35.40;15.13;;;6.10;99.90;;;;;;5052103;28;20466;-79
2022/11/14 04:29:26;;;;;;;35.65;15.20;;;6.10;99.90;;;;;;5041013;28;20076;-79
2022/11/14 04:31:52;;;;;;;37.35;15.63;;;6.00;99.90;;;;;;5035740;28;20070;-80
2022/11/14 04:34:17;;;;;;;41.67;16.40;;;6.10;99.90;;;;;;5035609;28;20512;-79
2022/11/14 04:36:43;;;;;;;37.15;15.95;;;6.60;99.90;;;;;;5051969;28;20103;-79
2022/11/14 04:39:09;;;;;;;39.25;17.17;;;6.60;99.90;;;;;;5035136;28;20039;-80
2022/11/14 04:41:34;;;;;;;39.30;14.85;;;6.00;99.90;;;;;;5048910;28;20048;-79
2022/11/14 04:44:00;;;;;;;37.55;14.98;;;6.00;99.90;;;;;;5035147;28;20127;-80
2022/11/14 04:46:26;;;;;;;37.72;16.73;;;6.00;99.90;;;;;;5035660;28;20458;-77
2022/11/14 04:48:52;;;;;;;37.88;15.10;;;5.90;99.90;;;;;;5051670;28;20072;-76
2022/11/14 04:51:17;;;;;;;34.45;14.45;;;5.90;99.90;;;;;;5052081;28;20388;-76
2022/11/14 04:53:43;;;;;;;33.92;14.90;;;5.90;99.90;;;;;;5035226;28;20040;-76
2022/11/14 04:56:09;;;;;;;36.85;15.25;;;5.90;99.90;;;;;;5018944;28;20041;-76
2022/11/14 04:58:34;;;;;;;38.85;15.98;;;5.90;99.90;;;;;;5051923;28;20045;-76
2022/11/14 05:01:07;;;;;;;35.13;14.20;;;5.90;99.90;;;;;;5055890;28;20044;-76
2022/11/14 05:03:33;;;;;;;35.38;14.63;;;6.30;99.90;;;;;;5051461;28;20060;-81
2022/11/14 05:06:02;;;;;;;38.08;16.92;;;5.90;99.90;;;;;;5051770;28;20397;-81
2022/11/14 05:08:28;;;;;;;35.78;15.57;;;5.90;99.90;;;;;;5049730;28;20048;-81
2022/11/14 05:10:54;;;;;;;38.75;15.27;;;5.90;99.90;;;;;;5045356;28;20059;-81
2022/11/14 05:13:19;;;;;;;35.35;14.38;;;6.40;99.90;;;;;;5051718;28;20500;-81
2022/11/14 05:15:45;;;;;;;41.35;16.88;;;5.80;99.90;;;;;;5051757;28;20037;-81
2022/11/14 05:18:11;;;;;;;36.90;15.55;;;5.80;99.90;;;;;;5051813;28;20136;-80
2022/11/14 05:20:36;;;;;;;36.50;15.70;;;5.80;99.90;;;;;;5037016;28;20041;-80
2022/11/14 05:23:03;;;;;;;30.75;13.82;;;5.80;99.90;;;;;;5043602;28;20041;-80
2022/11/14 05:25:28;;;;;;;34.65;14.80;;;5.80;99.90;;;;;;5055716;28;20041;-80
2022/11/14 05:27:54;;;;;;;35.95;15.23;;;6.50;99.90;;;;;;5040448;28;20044;-79
2022/11/14 05:30:20;;;;;;;40.95;15.48;;;5.80;99.90;;;;;;5055629;28;20171;-80
2022/11/14 05:32:46;;;;;;;41.35;15.60;;;5.80;99.90;;;;;;5054934;28;20488;-79
2022/11/14 05:35:11;;;;;;;37.45;13.52;;;5.80;99.90;;;;;;5055592;28;20032;-79
2022/11/14 05:37:37;;;;;;;36.50;14.68;;;5.80;99.90;;;;;;5038728;28;20126;-76
2022/11/14 05:40:04;;;;;;;31.55;13.68;;;6.00;99.90;;;;;;5038813;28;20515;-76
2022/11/14 05:42:30;;;;;;;38.22;15.65;;;5.80;99.90;;;;;;5042719;28;20447;-76
2022/11/14 05:44:56;;;;;;;34.90;16.27;;;5.80;99.90;;;;;;5055720;28;20041;-76
2022/11/14 05:47:22;;;;;;;33.67;15.18;;;5.80;99.90;;;;;;5055098;28;20049;-76
2022/11/14 05:49:47;;;;;;;37.75;16.58;;;5.90;99.90;;;;;;5055415;28;20076;-76
2022/11/14 05:52:13;;;;;;;39.45;15.75;;;5.80;99.90;;;;;;5039060;28;20094;-76
2022/11/14 05:54:39;;;;;;;33.95;14.10;;;6.40;99.90;;;;;;5054867;28;20064;-79
2022/11/14 05:57:04;;;;;;;31.17;14.57;;;5.80;99.90;;;;;;5055278;28;20071;-79
2022/11/14 05:59:30;;;;;;;37.50;14.85;;;5.80;99.90;;;;;;5054990;28;20128;-79
2022/11/14 06:01:56;;;;;;;34.22;14.80;;;5.90;99.90;;;;;;5054841;28;20075;-79
2022/11/14 06:04:22;;;;;;;37.20;15.95;;;5.80;99.90;;;;;;5052943;28;20053;-79
2022/11/14 06:06:48;;;;;;;37.20;15.38;;;5.80;99.90;;;;;;5055017;28;20032;-79
2022/11/14 06:09:13;;;;;;;40.72;16.33;;;6.50;99.90;;;;;;5054729;28;20068;-79
2022/11/14 06:11:42;;;;;;;32.78;13.95;;;5.80;99.90;;;;;;5054991;28;20037;-76
2022/11/14 06:14:08;;;;;;;35.38;13.95;;;5.80;99.90;;;;;;5030265;28;20037;-76
2022/11/14 06:16:33;;;;;;;34.80;13.85;;;5.80;99.90;;;;;;5054149;28;20056;-76
2022/11/14 06:18:59;;;;;;;35.17;15.45;;;6.30;99.90;;;;;;5054957;28;20086;-76
2022/11/14 06:21:25;;;;;;;33.28;14.45;;;5.80;99.90;;;;;;5037996;28;20511;-76
2022/11/14 06:23:51;;;;;;;37.50;16.10;;;5.80;99.90;;;;;;5052390;28;20037;-76
2022/11/14 06:26:26;;;;;;;33.88;13.68;;;5.80;99.90;;;;;;5037842;28;20399;-79
2022/11/14 06:28:52;;;;;;;35.03;15.35;;;5.80;99.90;;;;;;5037885;28;20045;-79
2022/11/14 06:31:20;;;;;;;35.17;15.35;;;6.20;99.90;;;;;;5053731;28;20041;-80
2022/11/14 06:33:46;;;;;;;38.95;15.65;;;5.90;99.90;;;;;;5054425;28;20041;-80
2022/11/14 06:36:12;;;;;;;32.70;15.55;;;5.80;99.90;;;;;;5040610;28;20550;-79
2022/11/14 06:38:39;;;;;;;34.65;16.20;;;6.10;99.90;;;;;;5037718;28;20076;-80
2022/11/14 06:41:06;;;;;;;37.97;17.05;;;5.90;99.90;;;;;;5037591;28;20047;-79
2022/11/14 06:43:33;;;;;;;39.83;15.18;;;5.90;99.90;;;;;;5037856;28;20045;-81
2022/11/14 06:46:00;;;;;;;36.70;14.77;;;6.10;99.90;;;;;;5046939;28;20045;-81
2022/11/14 06:48:25;;;;;;;35.47;15.60;;;5.90;99.90;;;;;;5040590;28;20037;-81
2022/11/14 06:50:55;;;;;;;36.08;15.23;;;5.90;99.90;;;;;;5053695;28;20116;-80
2022/11/14 06:53:21;;;;;;;36.55;15.23;;;6.20;99.90;;;;;;5039271;28;20115;-81
2022/11/14 06:56:07;;;;;;;34.97;15.75;;;6.40;99.90;;;;;;5042225;28;20111;-81
2022/11/14 06:58:35;;;;;;;36.80;16.20;;;5.90;99.90;;;;;;5054397;28;20045;-81
2022/11/14 07:01:14;;;;;;;34.17;18.00;;;5.90;99.90;;;;;;5045729;28;20045;-79
2022/11/14 07:03:41;;;;;;;35.63;15.80;;;6.50;99.90;;;;;;5038711;28;20060;-78
2022/11/14 07:06:09;;;;;;;30.63;14.38;;;5.90;99.90;;;;;;5039940;28;20056;-79
2022/11/14 07:08:34;;;;;;;35.28;15.02;;;5.90;99.90;;;;;;5048857;28;20045;-79
2022/11/14 07:11:05;;;;;;;34.38;15.20;;;5.90;99.90;;;;;;5012352;28;20041;-79
2022/11/14 07:13:31;;;;;;;38.15;15.82;;;5.90;99.90;;;;;;5037678;28;20492;-78
2022/11/14 07:15:57;;;;;;;34.05;14.07;;;5.90;99.90;;;;;;5037920;28;20539;-80
2022/11/14 07:18:23;;;;;;;34.85;14.90;;;5.90;99.90;;;;;;5037916;28;20040;-81
2022/11/14 07:20:49;;;;;;;35.92;14.70;;;5.80;99.90;;;;;;5053750;28;20052;-80
2022/11/14 07:23:15;;;;;;;37.70;16.27;;;5.80;99.90;;;;;;5031890;28;20555;-80
2022/11/14 07:25:41;;;;;;;39.50;16.98;;;5.80;99.90;;;;;;5027770;28;20043;-79
2022/11/14 07:28:07;;;;;;;34.58;15.25;;;6.00;99.90;;;;;;5040581;28;20041;-79
2022/11/14 07:30:33;;;;;;;39.47;16.75;;;6.10;99.90;;;;;;5037197;28;20047;-79
2022/11/14 07:32:59;;;;;;;35.17;13.73;;;5.80;99.90;;;;;;5039964;28;20037;-81
2022/11/14 07:35:25;;;;;;;37.47;14.63;;;6.40;99.90;;;;;;5052906;28;20040;-81
2022/11/14 07:37:51;;;;;;;38.42;15.75;;;6.00;99.90;;;;;;5038802;28;20090;-80
2022/11/14 07:40:17;;;;;;;35.80;15.05;;;5.80;99.90;;;;;;5036168;28;20036;-80
2022/11/14 07:42:43;;;;;;;35.35;14.50;;;5.80;99.90;;;;;;5050461;28;20045;-81
2022/11/14 07:45:09;;;;;;;40.95;15.77;;;5.90;99.90;;;;;;5020166;28;20044;-80
2022/11/14 07:47:35;;;;;;;39.95;15.48;;;5.90;99.90;;;;;;5019818;28;20056;-81
2022/11/14 07:50:02;;;;;;;38.03;15.63;;;5.90;99.90;;;;;;5035057;28;20033;-76
2022/11/14 07:52:30;;;;;;;32.65;13.13;;;5.90;99.90;;;;;;5035258;28;20391;-76
2022/11/14 07:54:56;;;;;;;39.05;14.98;;;5.90;99.90;;;;;;5035287;28;20033;-76
2022/11/14 07:57:21;;;;;;;37.88;15.88;;;5.90;99.90;;;;;;5034542;28;20538;-76
2022/11/14 07:59:47;;;;;;;39.90;15.52;;;5.90;99.90;;;;;;5035056;28;20048;-76
2022/11/14 08:02:13;;;;;;;43.35;16.20;;;5.80;99.90;;;;;;5019712;28;20045;-76
2022/11/14 08:04:41;;;;;;;40.40;16.17;;;5.90;99.90;;;;;;5032810;28;20064;-76
2022/11/14 08:07:07;;;;;;;36.50;15.30;;;5.90;99.90;;;;;;5016414;28;20041;-80
2022/11/14 08:09:33;;;;;;;38.15;13.93;;;6.40;99.90;;;;;;5032333;28;20525;-76
2022/11/14 08:11:58;;;;;;;38.28;14.82;;;5.90;99.90;;;;;;5036929;28;20049;-76
2022/11/14 08:14:24;;;;;;;37.60;15.95;;;5.90;99.90;;;;;;5022368;28;20041;-76
2022/11/14 08:16:50;;;;;;;39.70;16.15;;;6.00;99.90;;;;;;5032790;28;20034;-76
2022/11/14 08:19:16;;;;;;;39.13;16.52;;;6.10;99.90;;;;;;5053532;22;20057;-79
2022/11/14 08:21:42;;;;;;;37.50;15.57;;;6.10;99.90;;;;;;5035479;28;20143;-79
2022/11/14 08:24:08;;;;;;;40.15;16.25;;;6.10;99.90;;;;;;5035605;28;20036;-79
2022/11/14 08:26:34;;;;;;;41.95;15.30;;;6.10;99.90;;;;;;5052473;28;20120;-78
2022/11/14 08:29:00;;;;;;;39.35;15.65;;;6.20;99.90;;;;;;5052020;28;20049;-78
2022/11/14 08:31:26;;;;;;;41.05;14.73;;;6.20;99.90;;;;;;5035233;28;20131;-78
2022/11/14 08:33:52;;;;;;;37.17;14.27;;;6.50;99.90;;;;;;5051810;28;20095;-78
2022/11/14 08:36:18;;;;;;;36.83;16.05;;;6.20;99.90;;;;;;5035478;28;20037;-78
2022/11/14 08:38:44;;;;;;;33.65;14.85;;;6.30;99.90;;;;;;5035201;28;20055;-78
2022/11/14 08:41:09;;;;;;;34.60;13.88;;;6.20;99.90;;;;;;5051499;28;20049;-79
2022/11/14 08:43:35;;;;;;;34.70;15.40;;;6.30;99.90;;;;;;5019410;28;20041;-80
2022/11/14 08:46:02;;;;;;;38.35;15.80;;;6.30;99.90;;;;;;5028574;28;20554;-80
2022/11/14 08:48:29;;;;;;;36.05;15.10;;;6.30;99.90;;;;;;5031102;28;20041;-79
2022/11/14 08:50:55;;;;;;;34.88;14.90;;;6.40;99.90;;;;;;5032183;28;20095;-80
2022/11/14 08:53:21;;;;;;;33.80;14.73;;;6.70;99.90;;;;;;5050231;28;20477;-79
2022/11/14 08:55:47;;;;;;;39.95;15.70;;;7.00;99.90;;;;;;5034148;28;20040;-80
2022/11/14 08:58:13;;;;;;;33.30;14.55;;;7.40;99.90;;;;;;5052049;28;20040;-81
2022/11/14 09:00:39;;;;;;;36.88;15.10;;;8.00;99.90;;;;;;5052113;28;20045;-81
2022/11/14 09:03:09;;;;;;;36.95;15.85;;;8.10;99.90;;;;;;5052644;28;20515;-80
2022/11/14 09:05:35;;;;;;;31.15;13.57;;;8.20;99.90;;;;;;5052457;28;20079;-80
2022/11/14 09:08:02;;;;;;;39.88;14.00;;;8.00;99.90;;;;;;5052257;28;20045;-80
2022/11/14 09:10:28;;;;;;;33.72;13.73;;;7.70;99.90;;;;;;5051049;28;20033;-80
2022/11/14 09:12:55;;;;;;;34.40;13.63;;;7.60;99.90;;;;;;5035149;28;20127;-76
2022/11/14 09:15:21;;;;;;;35.15;13.00;;;7.40;99.90;;;;;;5051584;28;20043;-76
2022/11/14 09:17:47;;;;;;;32.22;14.30;;;7.40;99.90;;;;;;5053256;28;20041;-76
2022/11/14 09:20:13;;;;;;;33.17;14.50;;;7.50;99.90;;;;;;5021711;28;20044;-76
2022/11/14 09:22:39;;;;;;;35.80;14.60;;;7.60;99.90;;;;;;5056178;28;20040;-77
2022/11/14 09:25:05;;;;;;;30.90;13.80;;;8.20;99.90;;;;;;5054931;28;20040;-76
2022/11/14 09:27:31;;;;;;;42.25;16.05;;;7.90;99.90;;;;;;5038094;28;20049;-76
2022/11/14 09:29:56;;;;;;;30.08;13.60;;;8.30;99.90;;;;;;5038476;28;20040;-80
2022/11/14 09:32:22;;;;;;;31.95;14.07;;;7.90;99.90;;;;;;5050795;28;20036;-80
2022/11/14 09:34:48;;;;;;;32.50;13.35;;;8.00;99.90;;;;;;5074998;28;20040;-80
2022/11/14 09:37:13;;;;;;;30.75;13.20;;;8.20;99.90;;;;;;5045681;28;20132;-80
2022/11/14 09:39:39;;;;;;;34.75;12.90;;;8.10;99.90;;;;;;5054691;28;20059;-80
2022/11/14 09:42:17;;;;;;;31.90;12.82;;;8.10;99.90;;;;;;5091255;28;20115;-80
2022/11/14 09:44:55;;;;;;;31.90;14.07;;;7.90;99.90;;;;;;5054723;28;20045;-80
2022/11/14 09:47:38;;;;;;;32.85;13.63;;;8.00;99.90;;;;;;5071484;28;20044;-82
2022/11/14 09:50:21;;;;;;;36.33;14.40;;;8.10;99.90;;;;;;5071191;28;20139;-82
2022/11/14 09:53:16;;;;;;;33.55;13.30;;;8.00;99.90;;;;;;5058641;28;20048;-81
2022/11/14 09:55:42;;;;;;;39.17;13.98;;;8.00;99.90;;;;;;5063668;28;20052;-82
2022/11/14 09:58:15;;;;;;;32.78;12.75;;;8.10;99.90;;;;;;5054777;28;20101;-79
2022/11/14 10:00:50;;;;;;;34.40;13.73;;;8.10;99.90;;;;;;5054640;28;20080;-80
2022/11/14 10:03:43;;;;;;;34.40;13.07;;;8.20;99.90;;;;;;5036776;28;20032;-80
2022/11/14 10:06:32;;;;;;;27.30;12.02;;;8.30;99.90;;;;;;5061431;28;20377;-81
2022/11/14 10:09:17;;;;;;;34.05;12.98;;;8.40;99.90;;;;;;5038170;28;20047;-80
2022/11/14 10:11:51;;;;;;;32.58;14.13;;;8.70;99.90;;;;;;5051106;28;20041;-80
2022/11/14 10:14:38;;;;;;;30.02;12.73;;;8.80;99.90;;;;;;5057273;28;20550;-80
2022/11/14 10:17:28;;;;;;;27.08;10.63;;;8.80;99.90;;;;;;5038237;28;20374;-80
2022/11/14 10:20:16;;;;;;;26.67;12.95;;;8.80;99.90;;;;;;5069746;28;20052;-78
2022/11/14 10:23:04;;;;;;;29.25;11.90;;;8.70;99.90;;;;;;5070987;28;20048;-79
2022/11/14 10:25:50;;;;;;;22.23;11.27;;;9.00;99.90;;;;;;5089499;28;20047;-78
2022/11/14 10:28:19;;;;;;;26.97;11.27;;;9.80;99.90;;;;;;5056963;28;20044;-79
2022/11/14 10:30:50;;;;;;;29.45;12.00;;;10.40;99.90;;;;;;5041193;28;20315;-79
2022/11/14 10:33:36;;;;;;;26.35;11.65;;;10.50;99.90;;;;;;5048081;28;20047;-79
2022/11/14 10:36:30;;;;;;;25.15;10.73;;;11.00;99.90;;;;;;5045175;28;20182;-80
2022/11/14 10:39:20;;;;;;;26.42;11.68;;;11.20;99.90;;;;;;5057736;28;20499;-80
2022/11/14 10:41:51;;;;;;;25.50;11.30;;;11.40;99.90;;;;;;5074213;28;20098;-80
2022/11/14 10:44:23;;;;;;;21.02;9.77;;;11.60;99.90;;;;;;5040645;28;20045;-80
2022/11/14 10:46:54;;;;;;;22.73;9.82;;;11.60;99.90;;;;;;5050241;28;20085;-80
2022/11/14 10:49:23;;;;;;;26.83;10.02;;;12.30;99.90;;;;;;5057474;28;20044;-80
2022/11/14 10:51:54;;;;;;;20.30;9.68;;;12.40;99.90;;;;;;5040545;28;20045;-80
2022/11/14 10:54:33;;;;;;;24.85;10.55;;;14.10;99.90;;;;;;5068909;28;20044;-79
2022/11/14 10:56:58;;;;;;;18.73;9.98;;;13.60;99.90;;;;;;5074015;28;20115;-79
2022/11/14 10:59:26;;;;;;;21.23;9.15;;;14.00;99.90;;;;;;5033121;28;20131;-85
2022/11/14 11:01:56;;;;;;;23.45;9.15;;;13.90;99.90;;;;;;5073762;28;20396;-85
2022/11/14 11:04:29;;;;;;;21.55;10.05;;;14.20;99.90;;;;;;5064852;28;20037;-86
2022/11/14 11:07:05;;;;;;;20.65;9.10;;;14.20;99.90;;;;;;5056980;28;20131;-85
2022/11/14 11:12:20;;;;;;;21.10;10.68;;;13.80;99.90;;;;;;5039670;28;20047;-81
2022/11/14 11:15:07;;;;;;;22.95;10.73;;;13.30;99.90;;;;;;5072042;28;20051;-81
2022/11/14 11:17:33;;;;;;;23.70;10.40;;;13.40;99.90;;;;;;5042351;28;20182;-81
2022/11/14 11:20:32;;;;;;;24.80;10.52;;;12.70;99.90;;;;;;5056740;28;20060;-81
2022/11/14 11:23:10;;;;;;;25.58;10.23;;;12.10;99.90;;;;;;5055989;28;20048;-81
2022/11/14 11:25:37;;;;;;;25.90;11.90;;;11.50;99.90;;;;;;5071890;28;20136;-81
2022/11/14 11:28:05;;;;;;;21.38;9.70;;;10.80;99.90;;;;;;5066977;28;20479;-81
2022/11/14 11:30:31;;;;;;;24.63;11.27;;;10.40;99.90;;;;;;5073366;28;20120;-81
2022/11/14 11:33:13;;;;;;;23.73;10.23;;;10.00;99.90;;;;;;5072869;28;20043;-81
2022/11/14 11:35:41;;;;;;;26.42;10.85;;;9.90;99.90;;;;;;5064384;28;20040;-81
2022/11/14 11:38:09;;;;;;;23.88;9.57;;;9.80;99.90;;;;;;5073038;28;20047;-81
2022/11/14 11:40:36;;;;;;;23.45;9.45;;;9.80;99.90;;;;;;5107051;28;20040;-81
2022/11/14 11:43:08;;;;;;;23.95;10.90;;;9.80;99.90;;;;;;5047663;28;20488;-84
2022/11/14 11:45:35;;;;;;;26.05;11.73;;;9.60;99.90;;;;;;5095090;28;20044;-83
2022/11/14 11:48:20;;;;;;;25.08;10.88;;;9.50;99.90;;;;;;5061487;28;20052;-84
2022/11/14 11:50:47;;;;;;;22.02;9.40;;;9.40;99.90;;;;;;5069655;28;20036;-84
2022/11/14 11:53:31;;;;;;;23.35;10.85;;;9.40;99.90;;;;;;5035773;28;20053;-84
2022/11/14 11:56:08;;;;;;;27.88;11.85;;;9.40;99.90;;;;;;5047050;28;20506;-84
2022/11/14 11:58:50;;;;;;;25.00;11.77;;;9.40;99.90;;;;;;5054761;28;20055;-84
2022/11/14 12:01:16;;;;;;;25.48;10.48;;;9.30;99.90;;;;;;5037960;28;20040;-80
2022/11/14 12:03:53;;;;;;;23.05;10.32;;;9.50;99.90;;;;;;5054928;28;20082;-80
2022/11/14 12:06:26;;;;;;;;;;;9.40;99.90;;;;;;5056361;28;20040;-80
2022/11/14 12:09:13;;;;;;;22.85;10.75;;;9.40;99.90;;;;;;5055865;28;19920;-80
2022/11/14 12:11:44;;;;;;;27.95;12.57;;;9.30;99.90;;;;;;5055785;28;20052;-80
2022/11/14 12:14:31;;;;;;;26.52;12.43;;;9.20;99.90;;;;;;5055960;28;20505;-80
2022/11/14 12:17:23;;;;;;;26.40;11.70;;;9.10;99.90;;;;;;5057682;28;20071;-84
2022/11/14 12:20:07;;;;;;;24.30;11.20;;;9.10;99.90;;;;;;5056593;28;20059;-84
2022/11/14 12:22:42;;;;;;;26.67;10.95;;;9.00;99.90;;;;;;5054004;28;20491;-84
2022/11/14 12:25:45;;;;;;;25.83;10.70;;;9.00;99.90;;;;;;5055932;28;20040;-84
2022/11/14 12:28:21;;;;;;;22.15;10.40;;;8.90;99.90;;;;;;5036561;28;20048;-84
2022/11/14 12:30:52;;;;;;;23.40;10.55;;;9.00;99.90;;;;;;5067514;28;20481;-84
2022/11/14 12:33:27;;;;;;;26.58;11.15;;;9.00;99.90;;;;;;5045620;28;20040;-81
2022/11/14 12:35:57;;;;;;;25.23;11.15;;;9.20;99.90;;;;;;5033615;28;20029;-81
2022/11/14 12:38:23;;;;;;;23.05;11.10;;;9.20;99.90;;;;;;5054321;28;20045;-80
2022/11/14 12:40:57;;;;;;;26.63;11.05;;;9.20;99.90;;;;;;5036826;28;20492;-81
2022/11/14 12:43:38;;;;;;;22.23;10.38;;;9.20;99.90;;;;;;5038902;28;20486;-81
2022/11/14 12:46:10;;;;;;;24.90;9.90;;;9.20;99.90;;;;;;5038636;28;20032;-81
2022/11/14 12:48:37;;;;;;;23.30;11.15;;;9.30;99.90;;;;;;5061337;28;20508;-80
2022/11/14 12:51:24;;;;;;;24.15;11.13;;;9.30;99.90;;;;;;5101008;28;20480;-81